createdAt,value
2023-03-01T00:00:01.788Z,59.92
2023-03-01T00:01:06.321Z,59.76
2023-03-01T00:02:08.721Z,59.82
2023-03-01T00:03:10.997Z,59.90
2023-03-01T00:04:13.340Z,59.78
2023-03-01T00:05:15.532Z,60.01
2023-03-01T00:06:17.961Z,59.79
2023-03-01T00:07:20.231Z,59.93
2023-03-01T00:08:22.437Z,59.88
2023-03-01T00:09:24.718Z,59.86
2023-03-01T00:10:27.715Z,59.61
2023-03-01T00:11:34.629Z,59.76
2023-03-01T00:12:37.644Z,59.75
2023-03-01T00:13:40.265Z,59.67
2023-03-01T00:14:42.451Z,59.62
2023-03-01T00:15:45.548Z,59.61
2023-03-01T00:16:47.910Z,59.83
2023-03-01T00:17:50.056Z,59.68
2023-03-01T00:18:52.406Z,59.75
2023-03-01T00:19:54.568Z,59.54
2023-03-01T00:20:57.287Z,59.70
2023-03-01T00:21:59.587Z,59.64
2023-03-01T00:23:01.840Z,59.56
2023-03-01T00:24:06.769Z,59.69
2023-03-01T00:25:09.235Z,59.64
2023-03-01T00:26:14.996Z,59.55
2023-03-01T00:27:17.530Z,59.66
2023-03-01T00:28:20.372Z,59.47
2023-03-01T00:29:24.544Z,59.59
2023-03-01T00:30:27.438Z,59.55
2023-03-01T00:31:33.563Z,59.61
2023-03-01T00:32:35.826Z,59.75
2023-03-01T00:33:38.418Z,59.84
2023-03-01T00:34:41.022Z,59.81
2023-03-01T00:35:43.467Z,59.71
2023-03-01T00:36:46.275Z,59.88
2023-03-01T00:37:58.974Z,59.78
2023-03-01T00:39:02.936Z,59.79
2023-03-01T00:40:07.302Z,59.71
2023-03-01T00:41:13.107Z,59.99
2023-03-01T00:42:15.387Z,59.99
2023-03-01T00:43:17.933Z,59.86
2023-03-01T00:44:20.138Z,59.79
2023-03-01T00:45:23.025Z,59.82
2023-03-01T00:46:28.036Z,59.87
2023-03-01T00:47:30.733Z,59.87
2023-03-01T00:48:33.274Z,60.02
2023-03-01T00:49:36.854Z,59.99
2023-03-01T00:50:39.153Z,60.08
2023-03-01T00:51:42.539Z,59.94
2023-03-01T00:52:44.979Z,59.99
2023-03-01T00:53:47.529Z,60.03
2023-03-01T00:54:51.059Z,60.19
2023-03-01T00:55:53.198Z,60.24
2023-03-01T00:56:55.387Z,60.11
2023-03-01T00:57:57.632Z,60.14
2023-03-01T00:58:59.880Z,60.16
2023-03-01T01:00:02.158Z,60.17
2023-03-01T01:01:18.420Z,60.33
2023-03-01T01:02:21.407Z,60.17
2023-03-01T01:03:26.201Z,60.19
2023-03-01T01:04:28.819Z,60.08
2023-03-01T01:05:31.887Z,60.02
2023-03-01T01:06:43.938Z,59.97
2023-03-01T01:07:46.142Z,59.98
2023-03-01T01:08:49.534Z,59.96
2023-03-01T01:09:52.068Z,60.02
2023-03-01T01:10:55.709Z,59.93
2023-03-01T01:11:57.953Z,60.04
2023-03-01T01:13:02.764Z,60.13
2023-03-01T01:14:05.017Z,60.01
2023-03-01T01:15:07.781Z,60.11
2023-03-01T01:16:10.343Z,59.94
2023-03-01T01:17:13.708Z,60.03
2023-03-01T01:18:16.453Z,59.95
2023-03-01T01:19:18.650Z,60.20
2023-03-01T01:20:20.807Z,60.02
2023-03-01T01:21:26.140Z,60.17
2023-03-01T01:22:28.962Z,60.18
2023-03-01T01:23:32.554Z,60.14
2023-03-01T01:24:34.796Z,60.30
2023-03-01T01:25:37.966Z,60.14
2023-03-01T01:26:40.137Z,60.24
2023-03-01T01:27:42.325Z,60.29
2023-03-01T01:28:45.248Z,60.38
2023-03-01T01:29:48.547Z,60.33
2023-03-01T01:30:50.740Z,60.60
2023-03-01T01:31:53.079Z,60.56
2023-03-01T01:32:56.018Z,60.60
2023-03-01T01:34:00.538Z,60.69
2023-03-01T01:35:02.792Z,60.62
2023-03-01T01:36:06.642Z,60.70
2023-03-01T01:37:10.204Z,60.79
2023-03-01T01:38:12.521Z,60.77
2023-03-01T01:39:14.746Z,60.61
2023-03-01T01:40:19.602Z,60.54
2023-03-01T01:41:23.370Z,60.66
2023-03-01T01:42:25.627Z,60.66
2023-03-01T01:43:32.501Z,60.52
2023-03-01T01:44:34.950Z,60.57
2023-03-01T01:45:37.755Z,60.62
2023-03-01T01:47:05.147Z,60.52
2023-03-01T01:48:41.354Z,60.52
2023-03-01T01:49:48.569Z,60.51
2023-03-01T01:51:03.908Z,60.60
2023-03-01T01:52:10.647Z,60.53
2023-03-01T01:53:17.491Z,60.44
2023-03-01T01:54:25.032Z,60.60
2023-03-01T01:55:31.653Z,60.55
2023-03-01T01:56:38.085Z,60.48
2023-03-01T01:57:48.465Z,60.71
2023-03-01T01:58:51.365Z,60.45
2023-03-01T01:59:59.247Z,60.38
2023-03-01T02:01:02.773Z,60.66
2023-03-01T02:02:06.469Z,60.56
2023-03-01T02:03:18.490Z,60.83
2023-03-01T02:04:22.072Z,60.63
2023-03-01T02:05:36.384Z,60.83
2023-03-01T02:06:45.885Z,60.78
2023-03-01T02:07:49.373Z,60.87
2023-03-01T02:09:03.042Z,60.75
2023-03-01T02:10:06.199Z,60.86
2023-03-01T02:11:09.868Z,60.97
2023-03-01T02:12:13.904Z,61.02
2023-03-01T02:13:16.572Z,60.92
2023-03-01T02:14:19.469Z,61.07
2023-03-01T02:15:21.691Z,61.15
2023-03-01T02:16:24.708Z,61.14
2023-03-01T02:17:28.112Z,60.99
2023-03-01T02:18:30.809Z,61.21
2023-03-01T02:20:02.311Z,61.01
2023-03-01T02:21:39.551Z,61.19
2023-03-01T02:22:46.106Z,61.11
2023-03-01T02:23:48.465Z,61.13
2023-03-01T02:25:09.818Z,61.39
2023-03-01T02:26:43.878Z,61.38
2023-03-01T02:28:19.471Z,61.34
2023-03-01T02:29:24.150Z,61.32
2023-03-01T02:30:26.920Z,61.33
2023-03-01T02:31:44.105Z,61.51
2023-03-01T02:32:49.448Z,61.46
2023-03-01T02:33:54.226Z,61.57
2023-03-01T02:34:57.452Z,61.63
2023-03-01T02:36:09.451Z,61.58
2023-03-01T02:37:21.638Z,61.74
2023-03-01T02:38:24.912Z,61.66
2023-03-01T02:39:38.057Z,61.64
2023-03-01T02:40:41.858Z,61.61
2023-03-01T02:41:49.036Z,61.57
2023-03-01T02:42:55.736Z,61.89
2023-03-01T02:43:58.128Z,61.73
2023-03-01T02:45:00.330Z,61.52
2023-03-01T02:46:15.726Z,61.81
2023-03-01T02:47:18.436Z,61.50
2023-03-01T02:48:21.152Z,61.65
2023-03-01T02:49:31.623Z,61.78
2023-03-01T02:51:06.986Z,61.74
2023-03-01T02:52:51.011Z,61.80
2023-03-01T02:54:29.291Z,61.77
2023-03-01T02:55:31.598Z,61.63
2023-03-01T02:56:33.983Z,61.88
2023-03-01T02:57:39.442Z,61.84
2023-03-01T02:58:46.770Z,61.83
2023-03-01T02:59:52.466Z,61.82
2023-03-01T03:00:55.107Z,61.85
2023-03-01T03:01:57.877Z,61.71
2023-03-01T03:03:00.443Z,61.83
2023-03-01T03:04:08.591Z,61.85
2023-03-01T03:05:15.045Z,61.77
2023-03-01T03:06:17.722Z,61.85
2023-03-01T03:07:20.146Z,61.67
2023-03-01T03:08:27.457Z,61.70
2023-03-01T03:09:29.676Z,61.83
2023-03-01T03:10:36.453Z,61.93
2023-03-01T03:11:41.982Z,61.97
2023-03-01T03:12:44.377Z,61.71
2023-03-01T03:13:49.196Z,61.95
2023-03-01T03:14:52.248Z,62.00
2023-03-01T03:15:57.024Z,62.07
2023-03-01T03:16:59.346Z,61.94
2023-03-01T03:18:01.627Z,62.01
2023-03-01T03:19:06.389Z,61.91
2023-03-01T03:20:13.661Z,62.10
2023-03-01T03:21:16.402Z,61.89
2023-03-01T03:22:18.712Z,62.06
2023-03-01T03:23:22.524Z,61.99
2023-03-01T03:24:24.747Z,62.00
2023-03-01T03:25:28.603Z,62.01
2023-03-01T03:26:31.340Z,62.01
2023-03-01T03:27:33.655Z,61.85
2023-03-01T03:28:36.378Z,61.88
2023-03-01T03:29:38.576Z,61.73
2023-03-01T03:30:41.967Z,61.71
2023-03-01T03:31:44.250Z,61.75
2023-03-01T03:32:53.388Z,61.87
2023-03-01T03:33:55.804Z,61.74
2023-03-01T03:34:57.935Z,61.76
2023-03-01T03:36:00.217Z,61.73
2023-03-01T03:37:02.419Z,61.64
2023-03-01T03:38:12.617Z,61.67
2023-03-01T03:39:14.792Z,61.44
2023-03-01T03:40:18.442Z,61.51
2023-03-01T03:41:21.421Z,61.43
2023-03-01T03:42:24.833Z,61.54
2023-03-01T03:43:27.038Z,61.51
2023-03-01T03:44:29.438Z,61.32
2023-03-01T03:45:34.603Z,61.34
2023-03-01T03:46:38.673Z,61.47
2023-03-01T03:47:40.789Z,61.32
2023-03-01T03:48:45.311Z,61.39
2023-03-01T03:49:47.531Z,61.32
2023-03-01T03:50:56.349Z,61.43
2023-03-01T03:51:58.599Z,61.36
2023-03-01T03:53:05.760Z,61.39
2023-03-01T03:54:07.963Z,61.50
2023-03-01T03:55:12.858Z,61.43
2023-03-01T03:56:16.408Z,61.48
2023-03-01T03:57:18.629Z,61.54
2023-03-01T03:58:23.277Z,61.30
2023-03-01T03:59:25.573Z,61.29
2023-03-01T04:00:27.830Z,61.29
2023-03-01T04:01:30.056Z,61.21
2023-03-01T04:02:32.704Z,61.47
2023-03-01T04:03:36.309Z,61.35
2023-03-01T04:04:38.585Z,61.36
2023-03-01T04:05:41.916Z,61.45
2023-03-01T04:06:44.098Z,61.36
2023-03-01T04:07:46.712Z,61.35
2023-03-01T04:08:52.166Z,61.55
2023-03-01T04:09:54.306Z,61.35
2023-03-01T04:11:21.778Z,61.46
2023-03-01T04:12:24.235Z,61.54
2023-03-01T04:13:26.587Z,61.58
2023-03-01T04:14:28.836Z,61.59
2023-03-01T04:15:32.028Z,61.54
2023-03-01T04:16:34.462Z,61.59
2023-03-01T04:17:39.849Z,61.68
2023-03-01T04:18:42.087Z,61.78
2023-03-01T04:19:45.178Z,61.66
2023-03-01T04:20:49.633Z,61.90
2023-03-01T04:21:53.169Z,61.93
2023-03-01T04:23:21.238Z,61.93
2023-03-01T04:24:24.024Z,61.78
2023-03-01T04:25:26.551Z,61.88
2023-03-01T04:26:29.345Z,61.91
2023-03-01T04:27:31.708Z,61.95
2023-03-01T04:28:37.624Z,61.95
2023-03-01T04:29:40.384Z,61.91
2023-03-01T04:30:42.614Z,62.11
2023-03-01T04:31:49.231Z,61.92
2023-03-01T04:32:51.519Z,61.91
2023-03-01T04:33:58.760Z,62.06
2023-03-01T04:35:01.644Z,62.23
2023-03-01T04:36:06.490Z,62.15
2023-03-01T04:37:12.410Z,62.31
2023-03-01T04:38:14.585Z,62.13
2023-03-01T04:39:17.547Z,62.21
2023-03-01T04:40:19.871Z,62.19
2023-03-01T04:41:23.969Z,62.32
2023-03-01T04:42:26.234Z,62.18
2023-03-01T04:43:28.494Z,62.02
2023-03-01T04:44:31.974Z,61.98
2023-03-01T04:45:35.531Z,62.06
2023-03-01T04:46:38.119Z,61.97
2023-03-01T04:47:41.918Z,62.06
2023-03-01T04:48:46.189Z,61.96
2023-03-01T04:49:48.366Z,61.90
2023-03-01T04:50:50.826Z,62.04
2023-03-01T04:51:53.042Z,61.87
2023-03-01T04:53:01.040Z,61.88
2023-03-01T04:54:03.303Z,62.05
2023-03-01T04:55:07.130Z,61.97
2023-03-01T04:56:09.736Z,61.79
2023-03-01T04:57:11.944Z,61.95
2023-03-01T04:58:14.153Z,61.74
2023-03-01T04:59:16.782Z,61.78
2023-03-01T05:00:39.365Z,61.77
2023-03-01T05:01:43.986Z,61.77
2023-03-01T05:02:55.545Z,61.76
2023-03-01T05:04:04.279Z,61.82
2023-03-01T05:05:06.967Z,61.80
2023-03-01T05:06:09.206Z,61.74
2023-03-01T05:07:14.128Z,61.81
2023-03-01T05:08:19.793Z,61.73
2023-03-01T05:09:23.229Z,61.75
2023-03-01T05:10:26.983Z,61.83
2023-03-01T05:11:32.945Z,61.68
2023-03-01T05:12:35.198Z,61.66
2023-03-01T05:13:39.084Z,61.56
2023-03-01T05:14:41.900Z,61.73
2023-03-01T05:15:44.118Z,61.56
2023-03-01T05:16:46.339Z,61.41
2023-03-01T05:17:49.955Z,61.25
2023-03-01T05:18:52.095Z,61.48
2023-03-01T05:19:56.646Z,61.33
2023-03-01T05:21:11.741Z,61.27
2023-03-01T05:22:13.889Z,61.42
2023-03-01T05:23:16.050Z,61.33
2023-03-01T05:24:18.258Z,61.22
2023-03-01T05:25:22.520Z,61.20
2023-03-01T05:26:29.714Z,61.29
2023-03-01T05:27:32.189Z,61.21
2023-03-01T05:28:34.895Z,61.30
2023-03-01T05:29:37.438Z,61.23
2023-03-01T05:30:40.198Z,61.23
2023-03-01T05:31:42.373Z,61.36
2023-03-01T05:32:46.944Z,61.39
2023-03-01T05:33:49.128Z,61.39
2023-03-01T05:34:53.305Z,61.37
2023-03-01T05:35:55.516Z,61.26
2023-03-01T05:36:58.365Z,61.35
2023-03-01T05:38:00.608Z,61.28
2023-03-01T05:39:03.476Z,61.32
2023-03-01T05:40:06.650Z,61.45
2023-03-01T05:41:16.001Z,61.43
2023-03-01T05:42:18.186Z,61.47
2023-03-01T05:43:20.380Z,61.31
2023-03-01T05:44:23.008Z,61.27
2023-03-01T05:45:28.068Z,61.25
2023-03-01T05:46:30.869Z,61.33
2023-03-01T05:47:33.322Z,61.45
2023-03-01T05:48:36.670Z,61.39
2023-03-01T05:49:39.836Z,61.46
2023-03-01T05:50:44.425Z,61.53
2023-03-01T05:51:51.114Z,61.53
2023-03-01T05:52:59.449Z,61.62
2023-03-01T05:54:03.496Z,61.57
2023-03-01T05:55:06.594Z,61.63
2023-03-01T05:56:08.983Z,61.74
2023-03-01T05:57:11.542Z,61.54
2023-03-01T05:58:17.867Z,61.78
2023-03-01T05:59:20.482Z,61.83
2023-03-01T06:00:25.665Z,61.71
2023-03-01T06:01:28.086Z,61.66
2023-03-01T06:02:31.429Z,61.69
2023-03-01T06:03:33.933Z,61.70
2023-03-01T06:04:36.158Z,61.79
2023-03-01T06:05:38.506Z,61.55
2023-03-01T06:06:40.750Z,61.70
2023-03-01T06:07:43.177Z,61.73
2023-03-01T06:08:45.408Z,61.57
2023-03-01T06:09:47.667Z,61.87
2023-03-01T06:10:49.983Z,61.79
2023-03-01T06:11:52.289Z,61.88
2023-03-01T06:12:54.876Z,61.67
2023-03-01T06:13:57.200Z,61.69
2023-03-01T06:15:00.321Z,61.82
2023-03-01T06:16:05.916Z,61.85
2023-03-01T06:17:08.126Z,61.85
2023-03-01T06:18:10.998Z,61.80
2023-03-01T06:19:13.187Z,61.99
2023-03-01T06:20:19.018Z,61.97
2023-03-01T06:21:21.223Z,61.99
2023-03-01T06:22:23.480Z,61.98
2023-03-01T06:23:26.369Z,62.13
2023-03-01T06:24:29.872Z,62.02
2023-03-01T06:25:32.075Z,62.07
2023-03-01T06:26:35.360Z,62.11
2023-03-01T06:27:37.841Z,62.11
2023-03-01T06:28:40.022Z,62.13
2023-03-01T06:29:42.781Z,62.22
2023-03-01T06:30:45.414Z,62.21
2023-03-01T06:31:49.633Z,62.17
2023-03-01T06:32:52.550Z,62.27
2023-03-01T06:33:55.121Z,62.26
2023-03-01T06:34:57.345Z,62.36
2023-03-01T06:35:59.524Z,62.28
2023-03-01T06:37:06.241Z,62.15
2023-03-01T06:38:10.318Z,62.43
2023-03-01T06:39:12.547Z,62.46
2023-03-01T06:40:16.421Z,62.41
2023-03-01T06:41:18.670Z,62.51
2023-03-01T06:42:20.970Z,62.60
2023-03-01T06:43:25.784Z,62.53
2023-03-01T06:44:31.080Z,62.53
2023-03-01T06:45:33.538Z,62.59
2023-03-01T06:46:35.818Z,62.58
2023-03-01T06:47:39.190Z,62.57
2023-03-01T06:48:41.948Z,62.88
2023-03-01T06:49:44.114Z,62.77
2023-03-01T06:50:46.291Z,62.77
2023-03-01T06:51:48.466Z,62.90
2023-03-01T06:52:56.815Z,63.12
2023-03-01T06:54:01.314Z,63.24
2023-03-01T06:55:06.203Z,63.26
2023-03-01T06:56:08.517Z,63.35
2023-03-01T06:57:10.687Z,63.58
2023-03-01T06:58:14.269Z,63.64
2023-03-01T06:59:17.659Z,63.97
2023-03-01T07:00:21.323Z,64.11
2023-03-01T07:01:23.905Z,64.74
2023-03-01T07:02:26.137Z,65.04
2023-03-01T07:03:28.608Z,65.35
2023-03-01T07:04:31.700Z,65.53
2023-03-01T07:05:34.530Z,66.11
2023-03-01T07:06:36.799Z,66.36
2023-03-01T07:07:39.551Z,67.02
2023-03-01T07:08:41.800Z,67.38
2023-03-01T07:09:44.037Z,67.68
2023-03-01T07:10:46.362Z,67.79
2023-03-01T07:11:48.871Z,67.79
2023-03-01T07:12:51.076Z,68.09
2023-03-01T07:13:53.277Z,68.53
2023-03-01T07:14:55.436Z,69.04
2023-03-01T07:15:57.613Z,68.78
2023-03-01T07:17:00.267Z,68.92
2023-03-01T07:18:02.956Z,68.69
2023-03-01T07:19:06.408Z,68.40
2023-03-01T07:20:09.449Z,68.13
2023-03-01T07:21:14.066Z,67.53
2023-03-01T07:22:16.282Z,67.46
2023-03-01T07:23:19.868Z,67.21
2023-03-01T07:24:22.115Z,66.87
2023-03-01T07:25:24.340Z,66.30
2023-03-01T07:26:26.627Z,65.93
2023-03-01T07:27:28.893Z,66.19
2023-03-01T07:28:31.923Z,65.52
2023-03-01T07:29:34.310Z,65.25
2023-03-01T07:30:36.541Z,65.00
2023-03-01T07:31:38.856Z,64.06
2023-03-01T07:32:41.167Z,63.66
2023-03-01T07:33:43.375Z,63.17
2023-03-01T07:34:45.691Z,62.60
2023-03-01T07:35:48.959Z,61.69
2023-03-01T07:36:52.011Z,61.51
2023-03-01T07:37:57.506Z,60.71
2023-03-01T07:38:59.817Z,60.55
2023-03-01T07:40:02.027Z,60.06
2023-03-01T07:41:04.929Z,59.62
2023-03-01T07:42:07.109Z,59.35
2023-03-01T07:43:09.317Z,59.17
2023-03-01T07:44:11.915Z,58.48
2023-03-01T07:45:14.650Z,58.04
2023-03-01T07:46:17.290Z,57.83
2023-03-01T07:47:19.472Z,57.46
2023-03-01T07:48:21.754Z,57.01
2023-03-01T07:49:24.046Z,56.76
2023-03-01T07:50:26.260Z,56.29
2023-03-01T07:51:28.411Z,55.96
2023-03-01T07:52:31.861Z,55.78
2023-03-01T07:53:35.275Z,55.27
2023-03-01T07:54:37.528Z,55.08
2023-03-01T07:55:39.707Z,54.52
2023-03-01T07:56:41.907Z,54.04
2023-03-01T07:57:44.345Z,53.90
2023-03-01T07:58:48.697Z,53.61
2023-03-01T07:59:51.950Z,53.12
2023-03-01T08:00:55.095Z,52.74
2023-03-01T08:01:57.971Z,52.39
2023-03-01T08:03:01.957Z,51.97
2023-03-01T08:04:05.847Z,51.97
2023-03-01T08:05:08.457Z,51.86
2023-03-01T08:06:12.896Z,51.79
2023-03-01T08:07:15.452Z,51.33
2023-03-01T08:08:19.521Z,51.07
2023-03-01T08:09:23.067Z,50.97
2023-03-01T08:10:25.380Z,50.77
2023-03-01T08:11:30.726Z,50.49
2023-03-01T08:12:33.350Z,50.23
2023-03-01T08:13:36.996Z,50.31
2023-03-01T08:14:41.185Z,49.87
2023-03-01T08:15:45.453Z,49.40
2023-03-01T08:16:52.826Z,49.00
2023-03-01T08:17:56.281Z,48.97
2023-03-01T08:19:01.709Z,48.89
2023-03-01T08:20:07.519Z,49.02
2023-03-01T08:21:14.407Z,48.79
2023-03-01T08:22:16.955Z,48.56
2023-03-01T08:23:19.176Z,48.07
2023-03-01T08:24:24.036Z,48.08
2023-03-01T08:25:26.255Z,47.63
2023-03-01T08:26:29.487Z,47.24
2023-03-01T08:27:33.371Z,47.42
2023-03-01T08:28:37.166Z,47.06
2023-03-01T08:29:39.277Z,46.93
2023-03-01T08:30:41.482Z,47.00
2023-03-01T08:31:44.185Z,46.42
2023-03-01T08:32:46.573Z,46.26
2023-03-01T08:33:57.043Z,46.73
2023-03-01T08:34:59.344Z,46.66
2023-03-01T08:36:07.971Z,46.13
2023-03-01T08:37:10.887Z,45.93
2023-03-01T08:38:13.102Z,45.94
2023-03-01T08:39:17.781Z,45.61
2023-03-01T08:40:20.023Z,44.99
2023-03-01T08:41:23.889Z,44.27
2023-03-01T08:42:26.102Z,44.38
2023-03-01T08:43:28.446Z,44.57
2023-03-01T08:44:30.663Z,44.45
2023-03-01T08:45:32.964Z,44.33
2023-03-01T08:46:38.657Z,44.21
2023-03-01T08:47:40.908Z,44.08
2023-03-01T08:48:44.343Z,43.76
2023-03-01T08:49:46.509Z,43.31
2023-03-01T08:50:48.719Z,43.47
2023-03-01T08:51:50.917Z,43.48
2023-03-01T08:52:53.070Z,43.02
2023-03-01T08:53:55.251Z,42.51
2023-03-01T08:54:57.966Z,42.37
2023-03-01T08:56:04.220Z,42.40
2023-03-01T08:57:07.947Z,42.59
2023-03-01T08:58:10.121Z,42.87
2023-03-01T08:59:13.460Z,42.61
2023-03-01T09:00:16.120Z,42.52
2023-03-01T09:01:21.175Z,42.19
2023-03-01T09:02:23.793Z,42.18
2023-03-01T09:03:28.383Z,42.30
2023-03-01T09:04:32.332Z,41.98
2023-03-01T09:05:35.395Z,42.14
2023-03-01T09:06:37.691Z,41.98
2023-03-01T09:07:39.918Z,41.82
2023-03-01T09:08:44.769Z,41.47
2023-03-01T09:09:49.444Z,41.38
2023-03-01T09:10:51.716Z,41.44
2023-03-01T09:11:53.929Z,41.36
2023-03-01T09:12:56.100Z,41.26
2023-03-01T09:13:58.342Z,40.99
2023-03-01T09:15:00.639Z,40.62
2023-03-01T09:16:05.644Z,40.71
2023-03-01T09:17:07.925Z,40.65
2023-03-01T09:18:10.360Z,40.77
2023-03-01T09:19:12.652Z,40.89
2023-03-01T09:20:14.964Z,40.86
2023-03-01T09:21:39.158Z,40.51
2023-03-01T09:22:42.317Z,40.45
2023-03-01T09:23:48.740Z,40.29
2023-03-01T09:24:51.142Z,40.07
2023-03-01T09:25:53.912Z,40.20
2023-03-01T09:26:57.279Z,40.24
2023-03-01T09:27:59.407Z,40.62
2023-03-01T09:29:01.627Z,40.39
2023-03-01T09:30:04.149Z,40.15
2023-03-01T09:31:06.837Z,40.29
2023-03-01T09:32:09.454Z,40.33
2023-03-01T09:33:15.645Z,40.06
2023-03-01T09:34:24.188Z,40.21
2023-03-01T09:35:26.384Z,40.39
2023-03-01T09:36:28.801Z,40.05
2023-03-01T09:37:34.353Z,39.81
2023-03-01T09:38:36.903Z,39.55
2023-03-01T09:39:39.045Z,39.70
2023-03-01T09:40:47.321Z,39.49
2023-03-01T09:42:05.607Z,39.93
2023-03-01T09:43:18.627Z,39.94
2023-03-01T09:44:27.316Z,39.62
2023-03-01T09:45:35.339Z,39.28
2023-03-01T09:46:43.426Z,39.23
2023-03-01T09:47:47.592Z,39.29
2023-03-01T09:48:58.474Z,39.14
2023-03-01T09:50:03.673Z,39.35
2023-03-01T09:51:13.771Z,39.32
2023-03-01T09:52:33.065Z,39.46
2023-03-01T09:53:36.333Z,39.09
2023-03-01T09:54:38.703Z,38.84
2023-03-01T09:55:46.941Z,38.88
2023-03-01T09:57:02.174Z,39.08
2023-03-01T09:58:28.842Z,39.05
2023-03-01T09:59:53.968Z,38.80
2023-03-01T10:00:59.986Z,38.73
2023-03-01T10:02:22.742Z,38.47
2023-03-01T10:03:39.455Z,38.39
2023-03-01T10:04:48.358Z,38.00
2023-03-01T10:06:35.051Z,38.71
2023-03-01T10:07:49.071Z,38.02
2023-03-01T10:08:58.901Z,37.77
2023-03-01T10:10:02.294Z,37.95
2023-03-01T10:11:13.881Z,37.95
2023-03-01T10:12:28.844Z,37.94
2023-03-01T10:13:45.989Z,37.95
2023-03-01T10:14:58.916Z,38.05
2023-03-01T10:16:15.519Z,38.25
2023-03-01T10:17:35.372Z,38.02
2023-03-01T10:18:39.533Z,37.80
2023-03-01T10:19:47.125Z,37.81
2023-03-01T10:21:02.914Z,37.45
2023-03-01T10:22:30.724Z,37.92
2023-03-01T10:23:36.648Z,37.71
2023-03-01T10:24:38.917Z,37.75
2023-03-01T10:26:06.137Z,37.84
2023-03-01T10:27:32.082Z,38.04
2023-03-01T10:28:49.535Z,38.28
2023-03-01T10:30:22.212Z,38.04
2023-03-01T10:31:31.052Z,37.94
2023-03-01T10:32:33.827Z,37.92
2023-03-01T10:33:40.672Z,37.99
2023-03-01T10:34:42.930Z,37.85
2023-03-01T10:35:45.347Z,37.96
2023-03-01T10:36:58.362Z,37.95
2023-03-01T10:38:07.884Z,37.65
2023-03-01T10:39:17.591Z,37.39
2023-03-01T10:40:20.083Z,37.24
2023-03-01T10:41:27.156Z,37.41
2023-03-01T10:42:32.983Z,37.35
2023-03-01T10:43:56.990Z,37.57
2023-03-01T10:45:15.172Z,37.27
2023-03-01T10:46:33.361Z,37.21
2023-03-01T10:47:36.900Z,37.03
2023-03-01T10:48:39.042Z,36.96
2023-03-01T10:49:53.731Z,36.80
2023-03-01T10:50:58.604Z,36.78
2023-03-01T10:52:18.868Z,36.66
2023-03-01T10:53:35.289Z,36.72
2023-03-01T10:54:37.681Z,36.80
2023-03-01T10:55:41.305Z,36.75
2023-03-01T10:56:57.080Z,37.19
2023-03-01T10:58:11.780Z,36.91
2023-03-01T10:59:28.049Z,37.22
2023-03-01T11:00:30.310Z,37.31
2023-03-01T11:01:36.766Z,37.17
2023-03-01T11:02:39.105Z,37.10
2023-03-01T11:03:41.479Z,37.41
2023-03-01T11:05:03.271Z,37.37
2023-03-01T11:06:22.145Z,37.13
2023-03-01T11:07:24.308Z,37.12
2023-03-01T11:08:41.439Z,37.05
2023-03-01T11:09:44.200Z,36.38
2023-03-01T11:10:46.355Z,36.13
2023-03-01T11:12:01.789Z,36.42
2023-03-01T11:13:15.569Z,36.37
2023-03-01T11:14:29.558Z,36.51
2023-03-01T11:15:32.033Z,36.57
2023-03-01T11:16:37.456Z,36.51
2023-03-01T11:17:54.482Z,36.68
2023-03-01T11:19:19.056Z,36.90
2023-03-01T11:20:31.745Z,37.11
2023-03-01T11:21:35.933Z,37.40
2023-03-01T11:22:46.658Z,37.52
2023-03-01T11:23:51.103Z,37.55
2023-03-01T11:25:08.911Z,37.43
2023-03-01T11:26:14.188Z,37.12
2023-03-01T11:27:29.546Z,36.97
2023-03-01T11:28:34.055Z,36.72
2023-03-01T11:29:49.174Z,36.80
2023-03-01T11:31:08.729Z,36.61
2023-03-01T11:32:15.292Z,36.38
2023-03-01T11:33:43.852Z,36.38
2023-03-01T11:34:54.499Z,35.85
2023-03-01T11:36:05.494Z,35.79
2023-03-01T11:37:25.933Z,35.72
2023-03-01T11:38:32.089Z,35.71
2023-03-01T11:39:43.570Z,35.54
2023-03-01T11:40:56.100Z,35.35
2023-03-01T11:42:19.641Z,35.38
2023-03-01T11:43:32.906Z,35.21
2023-03-01T11:44:39.127Z,34.67
2023-03-01T11:46:11.922Z,34.99
2023-03-01T11:47:45.327Z,34.68
2023-03-01T11:49:27.458Z,34.85
2023-03-01T11:50:42.476Z,34.42
2023-03-01T11:51:54.908Z,34.72
2023-03-01T11:53:29.086Z,35.29
2023-03-01T11:54:57.379Z,35.14
2023-03-01T11:56:25.250Z,35.15
2023-03-01T11:57:42.731Z,35.24
2023-03-01T11:59:24.533Z,35.63
2023-03-01T12:01:05.299Z,35.55
2023-03-01T12:02:47.662Z,35.64
2023-03-01T12:04:08.771Z,35.70
2023-03-01T12:05:31.645Z,35.13
2023-03-01T12:07:06.313Z,35.34
2023-03-01T12:08:55.800Z,35.64
2023-03-01T12:10:23.059Z,35.43
2023-03-01T12:11:46.005Z,35.39
2023-03-01T12:13:38.687Z,35.54
2023-03-01T12:15:00.479Z,35.52
2023-03-01T12:16:17.611Z,35.02
2023-03-01T12:17:45.452Z,35.23
2023-03-01T12:18:50.297Z,34.90
2023-03-01T12:20:23.445Z,35.00
2023-03-01T12:22:00.457Z,35.25
2023-03-01T12:23:27.944Z,35.06
2023-03-01T12:24:57.848Z,35.62
2023-03-01T12:26:06.792Z,35.53
2023-03-01T12:27:40.217Z,35.56
2023-03-01T12:28:53.158Z,35.48
2023-03-01T12:30:10.782Z,35.50
2023-03-01T12:31:35.929Z,35.72
2023-03-01T12:32:56.830Z,35.63
2023-03-01T12:34:20.889Z,35.76
2023-03-01T12:35:32.748Z,36.08
2023-03-01T12:37:03.731Z,36.37
2023-03-01T12:38:27.012Z,36.59
2023-03-01T12:40:05.846Z,36.61
2023-03-01T12:41:44.860Z,36.68
2023-03-01T12:43:15.443Z,36.54
2023-03-01T12:44:44.870Z,36.72
2023-03-01T12:46:20.474Z,37.00
2023-03-01T12:47:45.965Z,36.82
2023-03-01T12:49:05.659Z,36.96
2023-03-01T12:50:20.943Z,37.28
2023-03-01T12:51:30.298Z,36.97
2023-03-01T12:52:50.630Z,36.86
2023-03-01T12:53:57.156Z,36.86
2023-03-01T12:55:04.058Z,36.85
2023-03-01T12:56:22.605Z,37.24
2023-03-01T12:57:39.332Z,37.26
2023-03-01T12:59:05.799Z,37.39
2023-03-01T13:00:29.413Z,37.60
2023-03-01T13:01:50.223Z,37.58
2023-03-01T13:03:21.996Z,37.74
2023-03-01T13:04:26.920Z,37.40
2023-03-01T13:06:09.484Z,37.65
2023-03-01T13:07:42.489Z,37.74
2023-03-01T13:09:13.697Z,37.95
2023-03-01T13:10:22.244Z,37.62
2023-03-01T13:11:25.126Z,37.46
2023-03-01T13:12:50.586Z,37.76
2023-03-01T13:14:12.908Z,37.71
2023-03-01T13:15:24.241Z,38.09
2023-03-01T13:16:30.540Z,38.08
2023-03-01T13:17:43.003Z,38.14
2023-03-01T13:18:46.493Z,38.04
2023-03-01T13:19:59.302Z,38.29
2023-03-01T13:21:02.843Z,38.23
2023-03-01T13:22:29.189Z,38.26
2023-03-01T13:23:38.523Z,38.25
2023-03-01T13:24:42.582Z,38.17
2023-03-01T13:26:00.091Z,38.24
2023-03-01T13:27:09.368Z,38.26
2023-03-01T13:28:32.976Z,38.42
2023-03-01T13:29:47.495Z,38.43
2023-03-01T13:30:49.728Z,38.25
2023-03-01T13:31:51.910Z,38.47
2023-03-01T13:33:29.245Z,38.40
2023-03-01T13:34:42.518Z,38.34
2023-03-01T13:35:45.719Z,38.40
2023-03-01T13:36:50.667Z,38.34
2023-03-01T13:37:52.938Z,38.39
2023-03-01T13:38:55.123Z,38.34
2023-03-01T13:40:05.877Z,38.30
2023-03-01T13:41:09.232Z,38.33
2023-03-01T13:42:59.410Z,38.58
2023-03-01T13:44:27.934Z,38.70
2023-03-01T13:45:44.308Z,38.50
2023-03-01T13:46:47.429Z,38.45
2023-03-01T13:48:00.053Z,38.10
2023-03-01T13:49:02.378Z,37.98
2023-03-01T13:50:05.412Z,38.05
2023-03-01T13:51:13.006Z,38.02
2023-03-01T13:52:40.529Z,38.43
2023-03-01T13:53:48.425Z,38.26
2023-03-01T13:54:51.366Z,38.52
2023-03-01T13:56:01.797Z,38.33
2023-03-01T13:57:04.430Z,38.30
2023-03-01T13:58:16.795Z,38.31
2023-03-01T13:59:22.207Z,38.20
2023-03-01T14:00:37.095Z,38.12
2023-03-01T14:01:40.213Z,38.24
2023-03-01T14:02:45.004Z,38.27
2023-03-01T14:03:47.570Z,38.26
2023-03-01T14:05:01.373Z,38.14
2023-03-01T14:06:20.841Z,38.14
2023-03-01T14:07:30.554Z,38.11
2023-03-01T14:08:33.203Z,37.91
2023-03-01T14:09:41.877Z,37.92
2023-03-01T14:10:55.213Z,38.07
2023-03-01T14:12:10.556Z,37.67
2023-03-01T14:13:50.878Z,38.00
2023-03-01T14:15:21.352Z,37.95
2023-03-01T14:16:51.187Z,37.84
2023-03-01T14:18:05.466Z,37.42
2023-03-01T14:19:32.585Z,36.89
2023-03-01T14:20:42.394Z,36.93
2023-03-01T14:21:44.737Z,37.08
2023-03-01T14:22:48.743Z,36.63
2023-03-01T14:23:50.868Z,36.83
2023-03-01T14:24:57.269Z,36.85
2023-03-01T14:25:59.470Z,36.55
2023-03-01T14:27:04.616Z,36.83
2023-03-01T14:28:29.623Z,37.29
2023-03-01T14:29:38.014Z,37.24
2023-03-01T14:30:44.416Z,37.29
2023-03-01T14:31:53.451Z,37.45